.
WxDataArchive / Data Records for 2014-09-24
2014-09-23 September 2014 2014-09-25

Data Records for Wednesday, 24 September 2014

Time	Temp	Chill	HIndex	Humid	Dewpt	 Wind 	HiWind	WindDir	Rain 	Barom
-----	----	-----	------	-----	-----	------	------	-------	-----	-----
00:00	51.3	51.3	51.3	91	48.8	0	0	---	0.00	30.320 
00:05	51.1	51.1	51.1	91	48.6	0	0	---	0.00	30.320 
00:10	51.1	51.1	51.1	91	48.6	0	0	---	0.00	30.320 
00:15	51.0	51.0	51.0	91	48.5	0	0	---	0.00	30.320 
00:20	50.8	50.8	50.8	91	48.3	0	0	---	0.00	30.320 
00:25	50.7	50.7	50.7	91	48.2	0	0	---	0.00	30.320 
00:30	50.5	50.5	50.5	92	48.3	0	0	---	0.00	30.320 
00:35	50.4	50.4	50.4	92	48.2	0	0	---	0.00	30.320 
00:40	50.4	50.4	50.4	92	48.2	0	0	---	0.00	30.320 
00:45	50.2	50.2	50.2	92	48.0	0	0	---	0.00	30.322 
00:50	50.1	50.1	50.1	92	47.9	0	0	---	0.00	30.322 
00:55	50.1	50.1	50.1	92	47.9	0	0	---	0.00	30.322 
01:00	49.9	49.9	49.9	92	47.7	0	0	---	0.00	30.322 
01:05	49.9	49.9	49.9	92	47.7	0	0	---	0.00	30.322 
01:10	49.8	49.8	49.8	92	47.6	0	0	---	0.00	30.322 
01:15	49.8	49.8	49.8	92	47.6	0	0	---	0.00	30.320 
01:20	49.8	49.8	49.8	92	47.6	0	0	---	0.00	30.320 
01:25	49.6	49.6	49.6	92	47.4	0	0	---	0.00	30.320 
01:30	49.5	49.5	49.5	92	47.3	0	0	---	0.00	30.321 
01:35	49.5	49.5	49.5	92	47.3	0	0	---	0.00	30.321 
01:40	49.4	49.4	49.4	92	47.2	0	0	---	0.00	30.321 
01:45	49.2	49.2	49.2	92	47.0	0	0	---	0.00	30.323 
01:50	49.2	49.2	49.2	92	47.0	0	0	---	0.00	30.323 
01:55	49.1	49.1	49.1	92	46.9	0	0	---	0.00	30.323 
02:00	48.9	48.9	48.9	92	46.7	0	0	---	0.00	30.323 
02:05	48.9	48.9	48.9	93	47.0	0	0	---	0.00	30.323 
02:10	48.9	48.9	48.9	93	47.0	0	0	---	0.00	30.323 
02:15	48.8	48.8	48.8	92	46.6	0	0	---	0.00	30.323 
02:20	48.6	48.6	48.6	93	46.7	0	0	---	0.00	30.323 
02:25	48.6	48.6	48.6	93	46.7	0	0	---	0.00	30.323 
02:30	48.6	48.6	48.6	93	46.7	0	0	---	0.00	30.322 
02:35	48.6	48.6	48.6	93	46.7	0	0	---	0.00	30.322 
02:40	48.5	48.5	48.5	93	46.6	0	0	---	0.00	30.322 
02:45	48.3	48.3	48.3	93	46.4	0	0	---	0.00	30.323 
02:50	48.3	48.3	48.3	93	46.4	0	0	---	0.00	30.323 
02:55	48.3	48.3	48.3	93	46.4	0	0	---	0.00	30.323 
03:00	48.5	48.5	48.5	93	46.6	0	0	---	0.00	30.318 
03:05	48.6	48.6	48.6	93	46.7	0	0	---	0.00	30.318 
03:10	48.6	48.6	48.6	93	46.7	0	0	---	0.00	30.318 
03:15	48.6	48.6	48.6	93	46.7	0	0	---	0.00	30.316 
03:20	48.6	48.6	48.6	93	46.7	0	0	---	0.00	30.316 
03:25	48.5	48.5	48.5	93	46.6	0	0	---	0.00	30.316 
03:30	48.5	48.5	48.5	93	46.6	0	0	---	0.00	30.317 
03:35	48.5	48.5	48.5	94	46.9	0	0	---	0.00	30.317 
03:40	48.3	48.3	48.3	94	46.7	0	0	---	0.00	30.317 
03:45	48.3	48.3	48.3	94	46.7	0	0	---	0.00	30.315 
03:50	48.2	48.2	48.2	94	46.6	0	0	---	0.00	30.315 
03:55	48.2	48.2	48.2	94	46.6	0	0	---	0.00	30.315 
04:00	48.2	48.2	48.2	94	46.6	0	0	---	0.00	30.320 
04:05	48.0	48.0	48.0	94	46.4	0	0	---	0.00	30.320 
04:10	48.0	48.0	48.0	94	46.4	0	0	---	0.00	30.320 
04:15	47.9	47.9	47.9	94	46.3	0	0	---	0.00	30.322 
04:20	47.7	47.7	47.7	93	45.8	0	0	---	0.00	30.322 
04:25	47.6	47.6	47.6	94	46.0	0	0	---	0.00	30.322 
04:30	47.4	47.4	47.4	94	45.8	0	0	---	0.00	30.323 
04:35	47.3	47.3	47.3	94	45.7	0	0	---	0.00	30.323 
04:40	47.3	47.3	47.3	94	45.7	0	0	---	0.00	30.323 
04:45	47.3	47.3	47.3	94	45.7	0	0	---	0.00	30.325 
04:50	47.1	47.1	47.1	94	45.5	0	0	---	0.00	30.325 
04:55	47.0	47.0	47.0	94	45.4	0	0	---	0.00	30.325 
05:00	47.0	47.0	47.0	94	45.4	0	0	---	0.00	30.329 
05:05	47.0	47.0	47.0	94	45.4	0	0	---	0.00	30.329 
05:10	47.0	47.0	47.0	94	45.4	0	0	---	0.00	30.329 
05:15	47.1	47.1	47.1	94	45.5	0	0	---	0.00	30.330 
05:20	47.3	47.3	47.3	94	45.7	0	0	---	0.00	30.330 
05:25	47.3	47.3	47.3	94	45.7	0	0	---	0.00	30.330 
05:30	47.3	47.3	47.3	94	45.7	0	0	---	0.00	30.330 
05:35	47.3	47.3	47.3	94	45.7	0	0	---	0.00	30.330 
05:40	47.1	47.1	47.1	94	45.5	0	0	---	0.00	30.330 
05:45	47.0	47.0	47.0	94	45.4	0	0	---	0.00	30.334 
05:50	46.8	46.8	46.8	94	45.2	0	0	---	0.00	30.334 
05:55	46.8	46.8	46.8	94	45.2	0	0	---	0.00	30.334 
06:00	46.7	46.7	46.7	94	45.1	0	0	---	0.00	30.333 
06:05	46.7	46.7	46.7	94	45.1	0	0	---	0.00	30.333 
06:10	46.5	46.5	46.5	94	44.9	0	0	---	0.00	30.333 
06:15	46.4	46.4	46.4	94	44.8	0	0	---	0.00	30.340 
06:20	46.2	46.2	46.2	94	44.6	0	0	---	0.00	30.340 
06:25	46.2	46.2	46.2	94	44.6	0	0	---	0.00	30.340 
06:30	46.1	46.1	46.1	94	44.5	0	0	---	0.00	30.343 
06:35	46.0	46.0	46.0	94	44.4	0	0	---	0.00	30.343 
06:40	46.0	46.0	46.0	94	44.4	0	0	---	0.00	30.343 
06:45	45.8	45.8	45.8	94	44.2	0	0	---	0.00	30.342 
06:50	45.7	45.7	45.7	94	44.1	0	0	---	0.00	30.342 
06:55	45.7	45.7	45.7	94	44.1	0	0	---	0.00	30.342 
07:00	45.5	45.5	45.5	94	43.9	0	0	---	0.00	30.347 
07:05	45.5	45.5	45.5	95	44.2	0	0	---	0.00	30.347 
07:10	45.4	45.4	45.4	95	44.1	0	0	---	0.00	30.347 
07:15	45.4	45.4	45.4	94	43.8	0	0	---	0.00	30.353 
07:20	45.2	45.2	45.2	95	43.9	0	0	---	0.00	30.353 
07:25	45.2	45.2	45.2	95	43.9	0	0	---	0.00	30.353 
07:30	45.2	45.2	45.2	95	43.9	0	0	---	0.00	30.358 
07:35	45.1	45.1	45.1	95	43.8	0	0	---	0.00	30.358 
07:40	45.1	45.1	45.1	95	43.8	0	0	---	0.00	30.358 
07:45	45.1	45.1	45.1	95	43.8	0	0	---	0.00	30.358 
07:50	45.1	45.1	45.1	95	43.8	0	0	---	0.00	30.358 
07:55	45.2	45.2	45.2	95	43.9	0	0	---	0.00	30.358 
08:00	45.2	45.2	45.2	95	43.9	0	0	---	0.00	30.361 
08:05	45.2	45.2	45.2	95	43.9	0	0	---	0.00	30.361 
08:10	45.4	45.4	45.4	95	44.1	0	0	---	0.00	30.361 
08:15	45.4	45.4	45.4	95	44.1	0	0	---	0.00	30.366 
08:20	45.5	45.5	45.5	95	44.2	0	0	---	0.00	30.366 
08:25	45.8	45.8	45.8	95	44.4	0	0	---	0.00	30.366 
08:30	46.4	46.4	46.4	95	45.0	0	0	---	0.00	30.365 
08:35	47.1	47.1	47.1	96	46.0	0	1	112	0.00	30.365 
08:40	48.5	48.5	48.5	96	47.4	0	1	112	0.00	30.365 
08:45	49.2	49.2	49.2	96	48.1	0	1	112	0.00	30.367 
08:50	49.8	49.8	49.8	96	48.7	0	1	112	0.00	30.367 
08:55	50.2	50.2	50.2	96	49.1	1	3	112	0.00	30.367 
09:00	50.5	50.5	50.5	95	49.1	2	4	112	0.00	30.374 
09:05	51.0	51.0	51.0	94	49.3	1	4	112	0.00	30.374 
09:10	51.4	51.4	51.4	93	49.4	0	2	112	0.00	30.374 
09:15	51.7	51.7	51.7	93	49.7	1	3	112	0.00	30.380 
09:20	52.2	52.2	52.2	92	49.9	0	2	112	0.00	30.380 
09:25	52.5	52.5	52.5	91	49.9	0	3	112	0.00	30.380 
09:30	52.9	52.9	52.9	89	49.7	0	2	112	0.00	30.382 
09:35	53.3	53.3	53.3	88	49.8	0	3	112	0.00	30.382 
09:40	53.6	53.6	53.6	88	50.1	0	1	112	0.00	30.382 
09:45	53.9	53.9	53.9	87	50.1	0	2	112	0.00	30.389 
09:50	54.4	54.4	54.4	87	50.6	0	1	112	0.00	30.389 
09:55	54.8	54.8	54.8	86	50.7	0	2	112	0.00	30.389 
10:00	55.6	55.6	55.6	84	50.8	0	2	112	0.00	30.385 
10:05	56.3	56.3	56.3	81	50.5	0	1	112	0.00	30.385 
10:10	56.9	56.9	56.9	80	50.8	0	2	112	0.00	30.385 
10:15	57.2	57.2	57.2	78	50.4	1	3	112	0.00	30.384 
10:20	57.6	57.6	57.6	77	50.4	0	3	112	0.00	30.384 
10:25	58.4	58.4	58.4	75	50.5	1	4	112	0.00	30.384 
10:30	59.3	59.3	59.3	74	51.0	0	2	112	0.00	30.383 
10:35	60.2	60.2	60.2	70	50.4	0	2	112	0.00	30.383 
10:40	61.2	61.2	61.2	69	50.9	1	3	112	0.00	30.383 
10:45	62.0	62.0	62.0	67	50.9	1	2	112	0.00	30.377 
10:50	62.9	62.9	62.9	66	51.4	0	2	112	0.00	30.377 
10:55	63.7	63.7	63.7	65	51.7	0	2	112	0.00	30.377 
11:00	64.2	64.2	64.2	62	50.9	1	3	112	0.00	30.369 
11:05	64.8	64.8	64.8	62	51.5	0	3	112	0.00	30.369 
11:10	65.8	65.8	65.8	59	51.1	0	1	112	0.00	30.369 
11:15	66.9	66.9	66.9	56	50.7	0	1	112	0.00	30.366 
11:20	67.9	67.9	67.9	55	51.1	0	3	112	0.00	30.366 
11:25	67.9	67.9	67.9	54	50.6	1	4	112	0.00	30.366 
11:30	67.4	67.4	67.4	55	50.7	1	3	90	0.00	30.366 
11:35	67.6	67.6	67.6	55	50.8	0	2	90	0.00	30.366 
11:40	68.3	68.3	68.3	54	51.0	0	3	90	0.00	30.366 
11:45	68.3	68.3	68.3	54	51.0	1	4	90	0.00	30.365 
11:50	68.3	68.3	68.3	53	50.5	1	3	90	0.00	30.365 
11:55	68.4	68.4	68.4	54	51.1	1	4	90	0.00	30.365 
12:00	68.9	68.9	68.9	54	51.6	0	1	68	0.00	30.359 
12:05	69.6	69.6	69.6	51	50.7	0	3	68	0.00	30.359 
12:10	70.1	70.1	70.1	50	50.6	0	2	68	0.00	30.359 
12:15	70.6	70.6	70.6	49	50.5	0	3	68	0.00	30.358 
12:20	71.1	71.1	71.1	46	49.3	1	4	68	0.00	30.358 
12:25	70.6	70.6	70.6	48	49.9	1	3	68	0.00	30.358 
12:30	70.4	70.4	70.4	48	49.8	1	4	68	0.00	30.355 
12:35	70.6	70.6	70.6	49	50.5	1	5	68	0.00	30.355 
12:40	70.8	70.8	70.8	46	49.0	0	5	68	0.00	30.355 
12:45	70.9	70.9	70.9	46	49.1	2	5	68	0.00	30.351 
12:50	70.9	70.9	70.9	46	49.1	0	1	68	0.00	30.351 
12:55	70.9	70.9	70.9	47	49.7	0	2	68	0.00	30.351 
13:00	70.9	70.9	70.9	45	48.5	1	3	68	0.00	30.350 
13:05	71.6	71.6	71.6	43	47.9	1	2	68	0.00	30.350 
13:10	71.6	71.6	71.6	42	47.3	1	4	68	0.00	30.350 
13:15	72.1	72.1	72.1	45	49.6	0	3	68	0.00	30.349 
13:20	72.3	72.3	72.3	46	50.3	1	3	68	0.00	30.349 
13:25	72.5	72.5	72.5	41	47.4	1	3	68	0.00	30.349 
13:30	72.8	72.8	72.8	45	50.2	0	2	68	0.00	30.338 
13:35	73.3	73.3	73.3	41	48.2	0	1	68	0.00	30.338 
13:40	73.5	73.5	73.5	42	49.0	1	4	68	0.00	30.338 
13:45	73.2	73.2	73.2	42	48.7	1	4	68	0.00	30.333 
13:50	73.2	73.2	73.2	48	52.3	1	3	68	0.00	30.333 
13:55	73.3	73.3	73.3	40	47.5	0	4	68	0.00	30.333 
14:00	73.5	73.5	73.5	37	45.6	1	5	68	0.00	30.325 
14:05	73.7	73.7	73.7	40	47.9	1	3	90	0.00	30.325 
14:10	73.9	73.9	73.9	38	46.7	0	2	90	0.00	30.325 
14:15	73.9	73.9	73.9	40	48.0	1	4	90	0.00	30.315 
14:20	73.9	73.9	73.9	38	46.7	1	3	90	0.00	30.315 
14:25	73.7	73.7	73.7	39	47.2	1	5	90	0.00	30.315 
14:30	73.9	73.9	73.9	38	46.7	1	2	90	0.00	30.306 
14:35	74.0	74.0	74.0	44	50.7	1	4	90	0.00	30.306 
14:40	74.2	74.2	74.2	39	47.6	1	5	68	0.00	30.306 
14:45	74.4	74.4	74.4	37	46.4	2	5	90	0.00	30.303 
14:50	74.4	74.4	74.4	37	46.4	1	4	112	0.00	30.303 
14:55	74.6	74.6	74.6	37	46.6	2	4	112	0.00	30.303 
15:00	74.6	74.6	74.6	33	43.6	2	5	68	0.00	30.299 
15:05	74.6	74.6	74.6	33	43.6	2	4	90	0.00	30.299 
15:10	74.7	74.7	74.7	35	45.2	1	5	158	0.00	30.299 
15:15	74.9	74.9	74.9	35	45.4	2	4	90	0.00	30.294 
15:20	74.9	74.9	74.9	35	45.4	1	6	90	0.00	30.294 
15:25	75.3	75.3	77.4	36	46.5	2	5	90	0.00	30.294 
15:30	75.3	75.3	77.4	35	45.7	1	4	90	0.00	30.288 
15:35	75.3	75.3	77.2	33	44.2	2	5	90	0.00	30.288 
15:40	75.4	75.4	77.3	34	45.1	1	2	90	0.00	30.288 
15:45	75.4	75.4	77.2	32	43.5	2	6	90	0.00	30.285 
15:50	75.3	75.3	77.3	34	45.0	2	5	90	0.00	30.285 
15:55	75.1	75.1	77.1	32	43.2	2	6	90	0.00	30.285 
16:00	75.1	75.1	77.2	33	44.0	2	6	90	0.00	30.284 
16:05	75.1	75.1	77.1	32	43.2	1	4	90	0.00	30.284 
16:10	75.1	75.1	77.3	35	45.6	1	4	90	0.00	30.284 
16:15	75.1	75.1	77.2	34	44.8	2	6	90	0.00	30.285 
16:20	75.3	75.3	77.2	32	43.4	0	2	90	0.00	30.285 
16:25	75.3	75.3	77.3	34	45.0	2	6	90	0.00	30.285 
16:30	75.3	75.3	77.4	35	45.7	1	4	90	0.00	30.282 
16:35	75.3	75.3	77.4	35	45.7	0	3	90	0.00	30.282 
16:40	75.3	75.3	77.2	33	44.2	1	4	90	0.00	30.282 
16:45	75.3	75.3	77.4	36	46.5	1	3	90	0.00	30.275 
16:50	75.3	75.3	77.4	35	45.7	2	5	112	0.00	30.275 
16:55	75.3	75.3	77.4	35	45.7	2	5	68	0.00	30.275 
17:00	75.4	75.4	77.4	36	46.6	1	3	68	0.00	30.273 
17:05	75.4	75.4	77.4	35	45.8	0	2	68	0.00	30.273 
17:10	75.4	75.4	77.4	35	45.8	1	4	68	0.00	30.273 
17:15	75.4	75.4	77.4	36	46.6	0	2	112	0.00	30.270 
17:20	75.4	75.4	77.4	36	46.6	1	3	112	0.00	30.270 
17:25	75.4	75.4	77.4	35	45.8	1	4	112	0.00	30.270 
17:30	75.4	75.4	77.4	36	46.6	1	3	112	0.00	30.269 
17:35	75.3	75.3	77.4	36	46.5	1	4	112	0.00	30.269 
17:40	75.3	75.3	77.4	35	45.7	2	5	112	0.00	30.269 
17:45	75.3	75.3	77.4	36	46.5	2	5	90	0.00	30.265 
17:50	75.3	75.3	77.4	35	45.7	1	4	90	0.00	30.265 
17:55	75.1	75.1	77.3	35	45.6	1	5	68	0.00	30.265 
18:00	74.9	74.9	74.9	36	46.1	0	3	68	0.00	30.266 
18:05	74.7	74.7	74.7	36	46.0	0	4	68	0.00	30.266 
18:10	74.6	74.6	74.6	34	44.4	0	2	90	0.00	30.266 
18:15	74.6	74.6	74.6	35	45.1	1	4	90	0.00	30.269 
18:20	74.4	74.4	74.4	35	44.9	1	3	135	0.00	30.269 
18:25	74.2	74.2	74.2	35	44.8	0	2	135	0.00	30.269 
18:30	74.0	74.0	74.0	36	45.3	0	3	135	0.00	30.268 
18:35	73.9	73.9	73.9	36	45.2	0	1	135	0.00	30.268 
18:40	73.7	73.7	73.7	37	45.8	0	1	135	0.00	30.268 
18:45	73.5	73.5	73.5	38	46.3	0	1	135	0.00	30.272 
18:50	73.2	73.2	73.2	39	46.7	0	0	---	0.00	30.272 
18:55	73.0	73.0	73.0	39	46.6	0	1	135	0.00	30.272 
19:00	72.7	72.7	72.7	41	47.6	0	0	---	0.00	30.274 
19:05	72.3	72.3	72.3	42	47.9	0	0	---	0.00	30.274 
19:10	72.0	72.0	72.0	43	48.3	0	0	---	0.00	30.274 
19:15	71.6	71.6	71.6	44	48.5	0	0	---	0.00	30.275 
19:20	71.1	71.1	71.1	45	48.7	0	0	---	0.00	30.275 
19:25	70.4	70.4	70.4	46	48.6	0	0	---	0.00	30.275 
19:30	69.9	69.9	69.9	46	48.2	0	0	---	0.00	30.277 
19:35	69.4	69.4	69.4	47	48.3	0	0	---	0.00	30.277 
19:40	68.9	68.9	68.9	51	50.0	0	0	---	0.00	30.277 
19:45	68.3	68.3	68.3	52	50.0	0	0	---	0.00	30.281 
19:50	67.6	67.6	67.6	53	49.9	0	0	---	0.00	30.281 
19:55	66.8	66.8	66.8	54	49.6	0	0	---	0.00	30.281 
20:00	66.0	66.0	66.0	55	49.4	0	0	---	0.00	30.284 
20:05	65.3	65.3	65.3	57	49.7	0	0	---	0.00	30.284 
20:10	64.8	64.8	64.8	58	49.7	0	0	---	0.00	30.284 
20:15	64.3	64.3	64.3	60	50.1	0	0	---	0.00	30.283 
20:20	63.7	63.7	63.7	62	50.4	0	0	---	0.00	30.283 
20:25	63.2	63.2	63.2	63	50.4	0	0	---	0.00	30.283 
20:30	62.7	62.7	62.7	64	50.3	0	0	---	0.00	30.284 
20:35	62.3	62.3	62.3	66	50.8	0	0	---	0.00	30.284 
20:40	62.0	62.0	62.0	66	50.5	0	0	---	0.00	30.284 
20:45	61.5	61.5	61.5	68	50.8	0	0	---	0.00	30.285 
20:50	61.2	61.2	61.2	73	52.5	0	1	135	0.00	30.285 
20:55	60.9	60.9	60.9	69	50.7	0	1	135	0.00	30.285 
21:00	61.2	61.2	61.2	66	49.7	0	3	135	0.00	30.292 
21:05	62.1	62.1	62.1	64	49.8	1	3	135	0.00	30.292 
21:10	62.9	62.9	62.9	63	50.1	0	3	112	0.00	30.292 
21:15	63.2	63.2	63.2	63	50.4	1	3	112	0.00	30.289 
21:20	63.4	63.4	63.4	64	51.0	0	3	112	0.00	30.289 
21:25	63.2	63.2	63.2	65	51.2	0	2	112	0.00	30.289 
21:30	63.1	63.1	63.1	65	51.1	0	1	112	0.00	30.289 
21:35	62.9	62.9	62.9	66	51.4	0	1	112	0.00	30.289 
21:40	62.6	62.6	62.6	67	51.5	0	2	112	0.00	30.289 
21:45	62.4	62.4	62.4	67	51.3	0	1	112	0.00	30.289 
21:50	62.1	62.1	62.1	68	51.4	0	1	112	0.00	30.289 
21:55	62.0	62.0	62.0	69	51.7	0	2	112	0.00	30.289 
22:00	61.8	61.8	61.8	69	51.5	0	3	112	0.00	30.286 
22:05	61.8	61.8	61.8	70	51.9	1	5	112	0.00	30.286 
22:10	61.8	61.8	61.8	71	52.3	0	3	90	0.00	30.286 
22:15	61.6	61.6	61.6	72	52.5	0	2	90	0.00	30.278 
22:20	61.3	61.3	61.3	72	52.2	0	2	90	0.00	30.278 
22:25	61.0	61.0	61.0	73	52.3	0	1	90	0.00	30.278 
22:30	60.7	60.7	60.7	74	52.4	0	2	90	0.00	30.279 
22:35	60.5	60.5	60.5	74	52.2	0	2	90	0.00	30.279 
22:40	60.4	60.4	60.4	75	52.4	0	1	90	0.00	30.279 
22:45	60.1	60.1	60.1	76	52.5	0	1	90	0.00	30.281 
22:50	59.9	59.9	59.9	76	52.3	0	1	90	0.00	30.281 
22:55	59.8	59.8	59.8	77	52.6	0	2	90	0.00	30.281 
23:00	59.5	59.5	59.5	77	52.3	0	1	90	0.00	30.282 
23:05	59.2	59.2	59.2	78	52.3	0	1	90	0.00	30.282 
23:10	59.0	59.0	59.0	79	52.5	0	1	90	0.00	30.282 
23:15	58.9	58.9	58.9	79	52.4	0	1	90	0.00	30.277 
23:20	58.6	58.6	58.6	80	52.4	0	0	---	0.00	30.277 
23:25	58.3	58.3	58.3	81	52.5	0	0	---	0.00	30.277 
23:30	58.1	58.1	58.1	81	52.3	0	0	---	0.00	30.275 
23:35	57.8	57.8	57.8	82	52.3	0	0	---	0.00	30.275 
23:40	57.5	57.5	57.5	82	52.0	0	0	---	0.00	30.275 
23:45	57.2	57.2	57.2	83	52.1	0	0	---	0.00	30.277 
23:50	57.0	57.0	57.0	83	51.9	0	0	---	0.00	30.277 
23:55	56.7	56.7	56.7	83	51.6	0	0	---	0.00	30.277 

CoCoRaHS
IN-AL-39
A2 Web Hosting
Creative Commons License
GoDaddy
search engine by freefind advanced

loaded 2018-11-13 21:23:08 • last modified 2010-11-18 10:43:29
Privacy PolicyDisclaimer
• wx.awcolley.com is powered by PmWiki v.2002016 •
• all content (unless otherwise noted) © 2018 A W Colley